sensor_id;sensor_type;location;lat;lon;timestamp;temperature;humidity
15844;DHT22;50807;52.436;13.346;2023-02-01T00:00:12;8.90;98.70
15844;DHT22;50807;52.436;13.346;2023-02-01T00:00:44;8.90;98.70
15844;DHT22;50807;52.436;13.346;2023-02-01T00:01:15;8.90;98.70
15844;DHT22;50807;52.436;13.346;2023-02-01T00:01:45;8.90;98.70
15844;DHT22;50807;52.436;13.346;2023-02-01T00:02:16;8.90;98.70
15844;DHT22;50807;52.436;13.346;2023-02-01T00:02:48;8.90;98.80
15844;DHT22;50807;52.436;13.346;2023-02-01T00:03:19;8.90;98.80
15844;DHT22;50807;52.436;13.346;2023-02-01T00:03:50;8.90;98.80
15844;DHT22;50807;52.436;13.346;2023-02-01T00:04:22;8.90;98.80
15844;DHT22;50807;52.436;13.346;2023-02-01T00:04:53;8.90;98.80
15844;DHT22;50807;52.436;13.346;2023-02-01T00:05:23;8.90;98.80
15844;DHT22;50807;52.436;13.346;2023-02-01T00:05:56;8.90;98.70
15844;DHT22;50807;52.436;13.346;2023-02-01T00:06:27;8.90;98.70
15844;DHT22;50807;52.436;13.346;2023-02-01T00:06:58;8.90;98.70
15844;DHT22;50807;52.436;13.346;2023-02-01T00:07:29;8.90;98.70
15844;DHT22;50807;52.436;13.346;2023-02-01T00:08:01;8.90;98.70
15844;DHT22;50807;52.436;13.346;2023-02-01T00:08:31;8.90;98.70
15844;DHT22;50807;52.436;13.346;2023-02-01T00:09:02;8.90;98.70
15844;DHT22;50807;52.436;13.346;2023-02-01T00:09:35;8.90;98.70
15844;DHT22;50807;52.436;13.346;2023-02-01T00:10:07;8.90;98.60
15844;DHT22;50807;52.436;13.346;2023-02-01T00:10:39;8.90;98.60
15844;DHT22;50807;52.436;13.346;2023-02-01T00:11:12;8.90;98.60
15844;DHT22;50807;52.436;13.346;2023-02-01T00:11:43;8.90;98.50
15844;DHT22;50807;52.436;13.346;2023-02-01T00:12:14;8.90;98.50
15844;DHT22;50807;52.436;13.346;2023-02-01T00:12:46;8.90;98.50
15844;DHT22;50807;52.436;13.346;2023-02-01T00:13:17;8.90;98.50
15844;DHT22;50807;52.436;13.346;2023-02-01T00:13:49;8.90;98.50
15844;DHT22;50807;52.436;13.346;2023-02-01T00:14:21;8.90;98.40
15844;DHT22;50807;52.436;13.346;2023-02-01T00:14:52;8.90;98.40
15844;DHT22;50807;52.436;13.346;2023-02-01T00:15:23;8.90;98.40
15844;DHT22;50807;52.436;13.346;2023-02-01T00:16:01;8.90;98.40
15844;DHT22;50807;52.436;13.346;2023-02-01T00:16:33;8.90;98.40
15844;DHT22;50807;52.436;13.346;2023-02-01T00:17:05;8.90;98.40
15844;DHT22;50807;52.436;13.346;2023-02-01T00:17:37;8.90;98.30
15844;DHT22;50807;52.436;13.346;2023-02-01T00:18:08;8.90;98.30
15844;DHT22;50807;52.436;13.346;2023-02-01T00:18:39;8.90;98.30
15844;DHT22;50807;52.436;13.346;2023-02-01T00:19:13;8.90;98.20
15844;DHT22;50807;52.436;13.346;2023-02-01T00:19:45;8.90;98.30
15844;DHT22;50807;52.436;13.346;2023-02-01T00:20:16;8.80;98.20
15844;DHT22;50807;52.436;13.346;2023-02-01T00:20:48;8.90;98.20
15844;DHT22;50807;52.436;13.346;2023-02-01T00:21:20;8.90;98.20
15844;DHT22;50807;52.436;13.346;2023-02-01T00:21:51;8.90;98.20
15844;DHT22;50807;52.436;13.346;2023-02-01T00:22:23;8.80;98.20
15844;DHT22;50807;52.436;13.346;2023-02-01T00:22:54;8.80;98.10
15844;DHT22;50807;52.436;13.346;2023-02-01T00:23:25;8.80;98.10
15844;DHT22;50807;52.436;13.346;2023-02-01T00:23:56;8.80;98.10
15844;DHT22;50807;52.436;13.346;2023-02-01T00:24:28;8.90;98.20
15844;DHT22;50807;52.436;13.346;2023-02-01T00:24:59;8.90;98.20
15844;DHT22;50807;52.436;13.346;2023-02-01T00:25:29;8.80;98.10
15844;DHT22;50807;52.436;13.346;2023-02-01T00:26:04;8.80;98.10
15844;DHT22;50807;52.436;13.346;2023-02-01T00:26:38;8.80;98.10
15844;DHT22;50807;52.436;13.346;2023-02-01T00:27:10;8.80;98.10
15844;DHT22;50807;52.436;13.346;2023-02-01T00:27:48;8.90;98.20
15844;DHT22;50807;52.436;13.346;2023-02-01T00:28:20;8.80;98.10
15844;DHT22;50807;52.436;13.346;2023-02-01T00:28:52;8.80;98.10
15844;DHT22;50807;52.436;13.346;2023-02-01T00:29:24;8.80;98.00
15844;DHT22;50807;52.436;13.346;2023-02-01T00:29:56;8.80;98.00
15844;DHT22;50807;52.436;13.346;2023-02-01T00:30:27;8.90;98.10
15844;DHT22;50807;52.436;13.346;2023-02-01T00:30:59;8.80;98.10
15844;DHT22;50807;52.436;13.346;2023-02-01T00:31:32;8.90;98.40
15844;DHT22;50807;52.436;13.346;2023-02-01T00:32:03;8.90;98.10
15844;DHT22;50807;52.436;13.346;2023-02-01T00:32:35;8.90;98.10
15844;DHT22;50807;52.436;13.346;2023-02-01T00:33:06;8.80;98.10
15844;DHT22;50807;52.436;13.346;2023-02-01T00:33:37;8.80;98.10
15844;DHT22;50807;52.436;13.346;2023-02-01T00:34:10;8.80;98.00
15844;DHT22;50807;52.436;13.346;2023-02-01T00:34:42;8.80;98.10
15844;DHT22;50807;52.436;13.346;2023-02-01T00:35:14;8.90;98.10
15844;DHT22;50807;52.436;13.346;2023-02-01T00:35:45;8.90;98.10
15844;DHT22;50807;52.436;13.346;2023-02-01T00:36:16;8.90;98.10
15844;DHT22;50807;52.436;13.346;2023-02-01T00:36:48;8.90;98.10
15844;DHT22;50807;52.436;13.346;2023-02-01T00:37:19;8.90;98.10
15844;DHT22;50807;52.436;13.346;2023-02-01T00:37:51;8.90;98.10
15844;DHT22;50807;52.436;13.346;2023-02-01T00:38:22;8.90;98.10
15844;DHT22;50807;52.436;13.346;2023-02-01T00:38:53;8.90;98.10
15844;DHT22;50807;52.436;13.346;2023-02-01T00:39:24;8.90;98.10
15844;DHT22;50807;52.436;13.346;2023-02-01T00:39:56;8.90;98.00
15844;DHT22;50807;52.436;13.346;2023-02-01T00:40:27;8.90;98.10
15844;DHT22;50807;52.436;13.346;2023-02-01T00:41:02;9.00;98.10
15844;DHT22;50807;52.436;13.346;2023-02-01T00:41:35;9.00;98.00
15844;DHT22;50807;52.436;13.346;2023-02-01T00:42:05;8.90;98.00
15844;DHT22;50807;52.436;13.346;2023-02-01T00:42:37;9.00;98.00
15844;DHT22;50807;52.436;13.346;2023-02-01T00:43:08;9.00;98.00
15844;DHT22;50807;52.436;13.346;2023-02-01T00:43:39;9.00;98.00
15844;DHT22;50807;52.436;13.346;2023-02-01T00:44:11;9.00;98.00
15844;DHT22;50807;52.436;13.346;2023-02-01T00:44:43;9.00;97.90
15844;DHT22;50807;52.436;13.346;2023-02-01T00:45:14;9.00;97.90
15844;DHT22;50807;52.436;13.346;2023-02-01T00:45:45;9.00;97.80
15844;DHT22;50807;52.436;13.346;2023-02-01T00:46:18;9.00;97.80
15844;DHT22;50807;52.436;13.346;2023-02-01T00:46:51;9.00;97.80
15844;DHT22;50807;52.436;13.346;2023-02-01T00:47:22;9.00;97.70
15844;DHT22;50807;52.436;13.346;2023-02-01T00:47:54;9.00;97.70
15844;DHT22;50807;52.436;13.346;2023-02-01T00:48:25;9.00;97.70
15844;DHT22;50807;52.436;13.346;2023-02-01T00:48:57;9.00;97.60
15844;DHT22;50807;52.436;13.346;2023-02-01T00:49:28;9.00;97.60
15844;DHT22;50807;52.436;13.346;2023-02-01T00:50:00;9.00;97.60
15844;DHT22;50807;52.436;13.346;2023-02-01T00:50:31;9.00;97.60
15844;DHT22;50807;52.436;13.346;2023-02-01T00:51:04;9.00;97.50
15844;DHT22;50807;52.436;13.346;2023-02-01T00:51:38;9.00;97.80
15844;DHT22;50807;52.436;13.346;2023-02-01T00:52:09;9.00;97.50
15844;DHT22;50807;52.436;13.346;2023-02-01T00:52:39;9.00;97.50
15844;DHT22;50807;52.436;13.346;2023-02-01T00:53:11;9.00;97.50
15844;DHT22;50807;52.436;13.346;2023-02-01T00:53:43;9.00;97.50
15844;DHT22;50807;52.436;13.346;2023-02-01T00:54:14;9.00;97.40
15844;DHT22;50807;52.436;13.346;2023-02-01T00:54:45;9.00;97.50
15844;DHT22;50807;52.436;13.346;2023-02-01T00:55:16;9.00;97.40
15844;DHT22;50807;52.436;13.346;2023-02-01T00:55:47;9.00;97.40
15844;DHT22;50807;52.436;13.346;2023-02-01T00:56:19;9.00;97.50
15844;DHT22;50807;52.436;13.346;2023-02-01T00:56:51;8.90;97.40
15844;DHT22;50807;52.436;13.346;2023-02-01T00:57:21;9.00;97.50
15844;DHT22;50807;52.436;13.346;2023-02-01T00:57:53;8.90;97.40
15844;DHT22;50807;52.436;13.346;2023-02-01T00:58:24;8.90;97.40
15844;DHT22;50807;52.436;13.346;2023-02-01T00:58:56;8.90;97.40
15844;DHT22;50807;52.436;13.346;2023-02-01T00:59:29;8.90;97.40
15844;DHT22;50807;52.436;13.346;2023-02-01T01:00:00;8.90;97.40
15844;DHT22;50807;52.436;13.346;2023-02-01T01:00:30;8.90;97.40
15844;DHT22;50807;52.436;13.346;2023-02-01T01:01:04;8.90;97.40
15844;DHT22;50807;52.436;13.346;2023-02-01T01:01:37;8.90;97.40
15844;DHT22;50807;52.436;13.346;2023-02-01T01:02:08;8.90;97.40
15844;DHT22;50807;52.436;13.346;2023-02-01T01:02:41;8.90;97.40
15844;DHT22;50807;52.436;13.346;2023-02-01T01:03:12;8.80;97.40
15844;DHT22;50807;52.436;13.346;2023-02-01T01:03:49;8.80;97.40
15844;DHT22;50807;52.436;13.346;2023-02-01T01:04:22;8.80;97.40
15844;DHT22;50807;52.436;13.346;2023-02-01T01:04:53;8.80;97.40
15844;DHT22;50807;52.436;13.346;2023-02-01T01:05:24;8.80;97.40
15844;DHT22;50807;52.436;13.346;2023-02-01T01:05:57;8.80;97.40
15844;DHT22;50807;52.436;13.346;2023-02-01T01:06:31;8.80;97.40
15844;DHT22;50807;52.436;13.346;2023-02-01T01:07:03;8.80;97.40
15844;DHT22;50807;52.436;13.346;2023-02-01T01:07:35;8.80;97.50
15844;DHT22;50807;52.436;13.346;2023-02-01T01:08:06;8.80;97.40
15844;DHT22;50807;52.436;13.346;2023-02-01T01:08:37;8.80;97.50
15844;DHT22;50807;52.436;13.346;2023-02-01T01:09:09;8.80;97.50
15844;DHT22;50807;52.436;13.346;2023-02-01T01:09:41;8.80;97.80
15844;DHT22;50807;52.436;13.346;2023-02-01T01:10:11;8.80;97.50
15844;DHT22;50807;52.436;13.346;2023-02-01T01:10:43;8.80;97.50
15844;DHT22;50807;52.436;13.346;2023-02-01T01:11:15;8.80;97.50
15844;DHT22;50807;52.436;13.346;2023-02-01T01:11:48;8.80;97.50
15844;DHT22;50807;52.436;13.346;2023-02-01T01:12:21;8.80;97.50
15844;DHT22;50807;52.436;13.346;2023-02-01T01:12:53;8.80;97.80
15844;DHT22;50807;52.436;13.346;2023-02-01T01:13:24;8.70;97.50
15844;DHT22;50807;52.436;13.346;2023-02-01T01:13:56;8.80;97.50
15844;DHT22;50807;52.436;13.346;2023-02-01T01:14:30;8.70;97.50
15844;DHT22;50807;52.436;13.346;2023-02-01T01:15:02;8.70;97.50
15844;DHT22;50807;52.436;13.346;2023-02-01T01:15:36;8.70;97.50
15844;DHT22;50807;52.436;13.346;2023-02-01T01:16:10;8.70;97.50
15844;DHT22;50807;52.436;13.346;2023-02-01T01:16:41;8.70;97.50
15844;DHT22;50807;52.436;13.346;2023-02-01T01:17:12;8.70;97.50
15844;DHT22;50807;52.436;13.346;2023-02-01T01:17:43;8.70;97.50
15844;DHT22;50807;52.436;13.346;2023-02-01T01:18:14;8.70;97.50
15844;DHT22;50807;52.436;13.346;2023-02-01T01:18:46;8.70;97.50
15844;DHT22;50807;52.436;13.346;2023-02-01T01:19:18;8.70;97.60
15844;DHT22;50807;52.436;13.346;2023-02-01T01:19:49;8.70;97.50
15844;DHT22;50807;52.436;13.346;2023-02-01T01:20:20;8.70;97.60
15844;DHT22;50807;52.436;13.346;2023-02-01T01:20:51;8.70;97.60
15844;DHT22;50807;52.436;13.346;2023-02-01T01:21:23;8.70;97.60
15844;DHT22;50807;52.436;13.346;2023-02-01T01:21:55;8.70;97.60
15844;DHT22;50807;52.436;13.346;2023-02-01T01:22:26;8.70;97.60
15844;DHT22;50807;52.436;13.346;2023-02-01T01:22:56;8.70;97.60
15844;DHT22;50807;52.436;13.346;2023-02-01T01:23:28;8.70;97.60
15844;DHT22;50807;52.436;13.346;2023-02-01T01:23:59;8.70;97.60
15844;DHT22;50807;52.436;13.346;2023-02-01T01:24:30;8.70;97.60
15844;DHT22;50807;52.436;13.346;2023-02-01T01:25:02;8.70;97.60
15844;DHT22;50807;52.436;13.346;2023-02-01T01:25:37;8.70;97.60
15844;DHT22;50807;52.436;13.346;2023-02-01T01:26:15;8.60;97.60
15844;DHT22;50807;52.436;13.346;2023-02-01T01:26:48;8.60;97.60
15844;DHT22;50807;52.436;13.346;2023-02-01T01:27:19;8.60;97.50
15844;DHT22;50807;52.436;13.346;2023-02-01T01:27:54;8.70;97.60
15844;DHT22;50807;52.436;13.346;2023-02-01T01:28:26;8.60;97.50
15844;DHT22;50807;52.436;13.346;2023-02-01T01:28:57;8.60;97.50
15844;DHT22;50807;52.436;13.346;2023-02-01T01:29:30;8.70;97.60
15844;DHT22;50807;52.436;13.346;2023-02-01T01:30:01;8.60;97.50
15844;DHT22;50807;52.436;13.346;2023-02-01T01:30:34;8.60;97.50
15844;DHT22;50807;52.436;13.346;2023-02-01T01:31:07;8.60;97.50
15844;DHT22;50807;52.436;13.346;2023-02-01T01:31:38;8.60;97.50
15844;DHT22;50807;52.436;13.346;2023-02-01T01:32:10;8.60;97.50
15844;DHT22;50807;52.436;13.346;2023-02-01T01:32:41;8.60;97.90
15844;DHT22;50807;52.436;13.346;2023-02-01T01:33:13;8.60;97.50
15844;DHT22;50807;52.436;13.346;2023-02-01T01:33:48;8.60;97.50
15844;DHT22;50807;52.436;13.346;2023-02-01T01:34:19;8.60;97.50
15844;DHT22;50807;52.436;13.346;2023-02-01T01:34:51;8.60;97.50
15844;DHT22;50807;52.436;13.346;2023-02-01T01:35:22;8.60;97.50
15844;DHT22;50807;52.436;13.346;2023-02-01T01:35:53;8.60;97.50
15844;DHT22;50807;52.436;13.346;2023-02-01T01:36:25;8.60;97.50
15844;DHT22;50807;52.436;13.346;2023-02-01T01:36:57;8.60;97.50
15844;DHT22;50807;52.436;13.346;2023-02-01T01:37:29;8.60;97.50
15844;DHT22;50807;52.436;13.346;2023-02-01T01:38:00;8.60;97.50
15844;DHT22;50807;52.436;13.346;2023-02-01T01:38:31;8.60;97.50
15844;DHT22;50807;52.436;13.346;2023-02-01T01:39:02;8.60;97.50
15844;DHT22;50807;52.436;13.346;2023-02-01T01:39:34;8.60;97.50
15844;DHT22;50807;52.436;13.346;2023-02-01T01:40:06;8.60;97.50
15844;DHT22;50807;52.436;13.346;2023-02-01T01:40:38;8.60;97.50
15844;DHT22;50807;52.436;13.346;2023-02-01T01:41:13;8.60;97.50
15844;DHT22;50807;52.436;13.346;2023-02-01T01:41:47;8.60;97.50
15844;DHT22;50807;52.436;13.346;2023-02-01T01:42:17;8.60;97.50
15844;DHT22;50807;52.436;13.346;2023-02-01T01:42:48;8.60;97.30
15844;DHT22;50807;52.436;13.346;2023-02-01T01:43:23;8.60;97.40
15844;DHT22;50807;52.436;13.346;2023-02-01T01:43:56;8.60;97.40
15844;DHT22;50807;52.436;13.346;2023-02-01T01:44:57;8.60;97.40
15844;DHT22;50807;52.436;13.346;2023-02-01T01:45:32;8.60;97.30
15844;DHT22;50807;52.436;13.346;2023-02-01T01:46:04;8.60;97.40
15844;DHT22;50807;52.436;13.346;2023-02-01T01:46:37;8.60;97.40
15844;DHT22;50807;52.436;13.346;2023-02-01T01:47:10;8.70;97.30
15844;DHT22;50807;52.436;13.346;2023-02-01T01:47:44;8.70;97.30
15844;DHT22;50807;52.436;13.346;2023-02-01T01:48:21;8.70;97.30
15844;DHT22;50807;52.436;13.346;2023-02-01T01:49:01;8.60;97.30
15844;DHT22;50807;52.436;13.346;2023-02-01T01:49:38;8.70;97.30
15844;DHT22;50807;52.436;13.346;2023-02-01T01:50:13;8.60;97.30
15844;DHT22;50807;52.436;13.346;2023-02-01T01:50:49;8.60;97.20
15844;DHT22;50807;52.436;13.346;2023-02-01T01:51:24;8.60;97.20
15844;DHT22;50807;52.436;13.346;2023-02-01T01:51:59;8.60;97.10
15844;DHT22;50807;52.436;13.346;2023-02-01T01:52:33;8.70;97.20
15844;DHT22;50807;52.436;13.346;2023-02-01T01:53:06;8.70;97.20
15844;DHT22;50807;52.436;13.346;2023-02-01T01:53:43;8.70;97.20
15844;DHT22;50807;52.436;13.346;2023-02-01T01:54:21;8.70;97.20
15844;DHT22;50807;52.436;13.346;2023-02-01T01:54:57;8.60;97.10
15844;DHT22;50807;52.436;13.346;2023-02-01T01:55:32;8.70;97.10
15844;DHT22;50807;52.436;13.346;2023-02-01T01:56:06;8.70;97.10
15844;DHT22;50807;52.436;13.346;2023-02-01T01:56:38;8.60;97.00
15844;DHT22;50807;52.436;13.346;2023-02-01T01:57:13;8.60;97.00
15844;DHT22;50807;52.436;13.346;2023-02-01T01:57:51;8.70;97.10
15844;DHT22;50807;52.436;13.346;2023-02-01T01:58:29;8.60;97.00
15844;DHT22;50807;52.436;13.346;2023-02-01T01:59:04;8.70;97.10
15844;DHT22;50807;52.436;13.346;2023-02-01T01:59:40;8.70;97.10
15844;DHT22;50807;52.436;13.346;2023-02-01T02:00:17;8.70;97.00
15844;DHT22;50807;52.436;13.346;2023-02-01T02:00:51;8.70;97.00
15844;DHT22;50807;52.436;13.346;2023-02-01T02:01:24;8.70;97.10
15844;DHT22;50807;52.436;13.346;2023-02-01T02:01:55;8.70;97.10
15844;DHT22;50807;52.436;13.346;2023-02-01T02:02:26;8.70;97.10
15844;DHT22;50807;52.436;13.346;2023-02-01T02:03:00;8.70;97.00
15844;DHT22;50807;52.436;13.346;2023-02-01T02:03:39;8.70;97.00
15844;DHT22;50807;52.436;13.346;2023-02-01T02:04:12;8.70;97.00
15844;DHT22;50807;52.436;13.346;2023-02-01T02:04:44;8.70;97.00
15844;DHT22;50807;52.436;13.346;2023-02-01T02:05:18;8.70;97.00
15844;DHT22;50807;52.436;13.346;2023-02-01T02:05:50;8.70;97.00
15844;DHT22;50807;52.436;13.346;2023-02-01T02:06:33;8.70;97.00
15844;DHT22;50807;52.436;13.346;2023-02-01T02:07:11;8.70;97.00
15844;DHT22;50807;52.436;13.346;2023-02-01T02:07:49;8.70;96.90
15844;DHT22;50807;52.436;13.346;2023-02-01T02:08:25;8.70;96.90
15844;DHT22;50807;52.436;13.346;2023-02-01T02:08:57;8.70;96.90
15844;DHT22;50807;52.436;13.346;2023-02-01T02:09:28;8.70;96.90
15844;DHT22;50807;52.436;13.346;2023-02-01T02:10:00;8.70;96.90
15844;DHT22;50807;52.436;13.346;2023-02-01T02:10:36;8.70;96.80
15844;DHT22;50807;52.436;13.346;2023-02-01T02:11:26;8.70;96.90
15844;DHT22;50807;52.436;13.346;2023-02-01T02:11:58;8.70;96.90
15844;DHT22;50807;52.436;13.346;2023-02-01T02:12:30;8.70;96.80
15844;DHT22;50807;52.436;13.346;2023-02-01T02:13:00;8.70;96.80
15844;DHT22;50807;52.436;13.346;2023-02-01T02:13:35;8.70;96.80
15844;DHT22;50807;52.436;13.346;2023-02-01T02:14:12;8.70;96.80
15844;DHT22;50807;52.436;13.346;2023-02-01T02:14:46;8.70;96.80
15844;DHT22;50807;52.436;13.346;2023-02-01T02:15:19;8.70;96.80
15844;DHT22;50807;52.436;13.346;2023-02-01T02:16:05;8.70;96.80
15844;DHT22;50807;52.436;13.346;2023-02-01T02:17:19;8.70;96.80
15844;DHT22;50807;52.436;13.346;2023-02-01T02:18:05;8.70;96.90
15844;DHT22;50807;52.436;13.346;2023-02-01T02:18:48;8.80;96.80
15844;DHT22;50807;52.436;13.346;2023-02-01T02:19:48;8.80;96.70
15844;DHT22;50807;52.436;13.346;2023-02-01T02:20:58;8.70;96.60
15844;DHT22;50807;52.436;13.346;2023-02-01T02:21:51;8.80;96.50
15844;DHT22;50807;52.436;13.346;2023-02-01T02:22:55;8.80;96.50
15844;DHT22;50807;52.436;13.346;2023-02-01T02:25:22;8.80;96.50
15844;DHT22;50807;52.436;13.346;2023-02-01T02:26:27;8.80;96.40
15844;DHT22;50807;52.436;13.346;2023-02-01T02:27:12;8.80;96.40
15844;DHT22;50807;52.436;13.346;2023-02-01T02:28:01;8.80;96.40
15844;DHT22;50807;52.436;13.346;2023-02-01T02:29:15;8.80;96.30
15844;DHT22;50807;52.436;13.346;2023-02-01T02:30:52;8.80;96.30
15844;DHT22;50807;52.436;13.346;2023-02-01T02:31:59;8.80;96.30
15844;DHT22;50807;52.436;13.346;2023-02-01T02:33:38;8.80;96.30
15844;DHT22;50807;52.436;13.346;2023-02-01T02:34:20;8.80;96.40
15844;DHT22;50807;52.436;13.346;2023-02-01T02:34:58;8.80;96.30
15844;DHT22;50807;52.436;13.346;2023-02-01T02:35:41;8.80;96.30
15844;DHT22;50807;52.436;13.346;2023-02-01T02:36:30;8.80;96.20
15844;DHT22;50807;52.436;13.346;2023-02-01T02:37:14;8.80;96.30
15844;DHT22;50807;52.436;13.346;2023-02-01T02:37:55;8.80;96.30
15844;DHT22;50807;52.436;13.346;2023-02-01T02:38:33;8.80;96.30
15844;DHT22;50807;52.436;13.346;2023-02-01T02:39:19;8.70;96.30
15844;DHT22;50807;52.436;13.346;2023-02-01T02:39:59;8.80;96.40
15844;DHT22;50807;52.436;13.346;2023-02-01T02:40:42;8.70;96.40
15844;DHT22;50807;52.436;13.346;2023-02-01T02:41:20;8.70;96.40
15844;DHT22;50807;52.436;13.346;2023-02-01T02:42:21;8.80;96.50
15844;DHT22;50807;52.436;13.346;2023-02-01T02:43:21;8.70;96.50
15844;DHT22;50807;52.436;13.346;2023-02-01T02:44:23;8.70;96.50
15844;DHT22;50807;52.436;13.346;2023-02-01T02:45:21;8.70;96.50
15844;DHT22;50807;52.436;13.346;2023-02-01T02:46:21;8.80;96.50
15844;DHT22;50807;52.436;13.346;2023-02-01T02:47:16;8.80;96.40
15844;DHT22;50807;52.436;13.346;2023-02-01T02:47:57;8.80;96.40
15844;DHT22;50807;52.436;13.346;2023-02-01T02:48:44;8.80;96.40
15844;DHT22;50807;52.436;13.346;2023-02-01T02:49:23;8.80;96.40
15844;DHT22;50807;52.436;13.346;2023-02-01T02:50:10;8.70;96.40
15844;DHT22;50807;52.436;13.346;2023-02-01T02:51:09;8.80;96.50
15844;DHT22;50807;52.436;13.346;2023-02-01T02:52:03;8.80;96.50
15844;DHT22;50807;52.436;13.346;2023-02-01T02:53:03;8.80;96.50
15844;DHT22;50807;52.436;13.346;2023-02-01T02:53:59;8.80;96.50
15844;DHT22;50807;52.436;13.346;2023-02-01T02:54:54;8.80;96.50
15844;DHT22;50807;52.436;13.346;2023-02-01T02:55:30;8.80;96.50
15844;DHT22;50807;52.436;13.346;2023-02-01T02:56:07;8.80;96.40
15844;DHT22;50807;52.436;13.346;2023-02-01T02:57:02;8.80;96.40
15844;DHT22;50807;52.436;13.346;2023-02-01T02:57:56;8.80;96.40
15844;DHT22;50807;52.436;13.346;2023-02-01T02:58:48;8.80;96.40
15844;DHT22;50807;52.436;13.346;2023-02-01T02:59:38;8.80;96.40
15844;DHT22;50807;52.436;13.346;2023-02-01T03:00:32;8.80;96.50
15844;DHT22;50807;52.436;13.346;2023-02-01T03:01:23;8.80;96.40
15844;DHT22;50807;52.436;13.346;2023-02-01T03:02:13;8.80;96.50
15844;DHT22;50807;52.436;13.346;2023-02-01T03:03:04;8.80;96.40
15844;DHT22;50807;52.436;13.346;2023-02-01T03:03:56;8.80;96.40
15844;DHT22;50807;52.436;13.346;2023-02-01T03:04:39;8.80;96.40
15844;DHT22;50807;52.436;13.346;2023-02-01T03:05:10;8.80;96.40
15844;DHT22;50807;52.436;13.346;2023-02-01T03:05:43;8.80;96.40
15844;DHT22;50807;52.436;13.346;2023-02-01T03:06:17;8.80;96.40
15844;DHT22;50807;52.436;13.346;2023-02-01T03:06:49;8.80;96.40
15844;DHT22;50807;52.436;13.346;2023-02-01T03:07:57;8.80;96.50
15844;DHT22;50807;52.436;13.346;2023-02-01T03:08:33;8.80;96.50
15844;DHT22;50807;52.436;13.346;2023-02-01T03:09:08;8.80;96.50
15844;DHT22;50807;52.436;13.346;2023-02-01T03:09:45;8.80;96.50
15844;DHT22;50807;52.436;13.346;2023-02-01T03:10:24;8.80;96.40
15844;DHT22;50807;52.436;13.346;2023-02-01T03:11:02;8.80;96.50
15844;DHT22;50807;52.436;13.346;2023-02-01T03:11:36;8.80;96.50
15844;DHT22;50807;52.436;13.346;2023-02-01T03:12:26;8.80;96.50
15844;DHT22;50807;52.436;13.346;2023-02-01T03:13:33;8.80;96.50
15844;DHT22;50807;52.436;13.346;2023-02-01T03:14:11;8.80;96.50
15844;DHT22;50807;52.436;13.346;2023-02-01T03:14:46;8.80;96.50
15844;DHT22;50807;52.436;13.346;2023-02-01T03:15:22;8.80;96.50
15844;DHT22;50807;52.436;13.346;2023-02-01T03:16:01;8.80;96.50
15844;DHT22;50807;52.436;13.346;2023-02-01T03:16:41;8.80;96.40
15844;DHT22;50807;52.436;13.346;2023-02-01T03:17:21;8.80;96.40
15844;DHT22;50807;52.436;13.346;2023-02-01T03:17:58;8.80;96.40
15844;DHT22;50807;52.436;13.346;2023-02-01T03:18:41;8.80;96.40
15844;DHT22;50807;52.436;13.346;2023-02-01T03:19:22;8.80;96.40
15844;DHT22;50807;52.436;13.346;2023-02-01T03:19:59;8.80;96.40
15844;DHT22;50807;52.436;13.346;2023-02-01T03:20:33;8.80;96.30
15844;DHT22;50807;52.436;13.346;2023-02-01T03:21:12;8.80;96.30
15844;DHT22;50807;52.436;13.346;2023-02-01T03:21:49;8.80;96.40
15844;DHT22;50807;52.436;13.346;2023-02-01T03:22:27;8.80;96.40
15844;DHT22;50807;52.436;13.346;2023-02-01T03:23:03;8.80;96.40
15844;DHT22;50807;52.436;13.346;2023-02-01T03:23:37;8.80;96.40
15844;DHT22;50807;52.436;13.346;2023-02-01T03:24:11;8.80;96.40
15844;DHT22;50807;52.436;13.346;2023-02-01T03:24:47;8.80;96.40
15844;DHT22;50807;52.436;13.346;2023-02-01T03:25:25;8.80;96.40
15844;DHT22;50807;52.436;13.346;2023-02-01T03:26:02;8.90;96.40
15844;DHT22;50807;52.436;13.346;2023-02-01T03:26:41;8.90;96.40
15844;DHT22;50807;52.436;13.346;2023-02-01T03:27:17;8.90;96.40
15844;DHT22;50807;52.436;13.346;2023-02-01T03:27:54;8.80;96.30
15844;DHT22;50807;52.436;13.346;2023-02-01T03:28:31;8.80;96.30
15844;DHT22;50807;52.436;13.346;2023-02-01T03:29:09;8.80;96.30
15844;DHT22;50807;52.436;13.346;2023-02-01T03:29:48;8.80;96.30
15844;DHT22;50807;52.436;13.346;2023-02-01T03:30:24;8.80;96.30
15844;DHT22;50807;52.436;13.346;2023-02-01T03:30:57;8.80;96.30
15844;DHT22;50807;52.436;13.346;2023-02-01T03:31:28;8.90;96.40
15844;DHT22;50807;52.436;13.346;2023-02-01T03:32:00;8.80;96.30
15844;DHT22;50807;52.436;13.346;2023-02-01T03:32:31;8.80;96.30
15844;DHT22;50807;52.436;13.346;2023-02-01T03:33:25;8.90;96.30
15844;DHT22;50807;52.436;13.346;2023-02-01T03:34:00;8.90;96.30
15844;DHT22;50807;52.436;13.346;2023-02-01T03:34:32;8.90;96.30
15844;DHT22;50807;52.436;13.346;2023-02-01T03:35:04;8.90;96.30
15844;DHT22;50807;52.436;13.346;2023-02-01T03:35:40;8.90;96.30
15844;DHT22;50807;52.436;13.346;2023-02-01T03:36:19;8.90;96.30
15844;DHT22;50807;52.436;13.346;2023-02-01T03:36:59;8.90;96.20
15844;DHT22;50807;52.436;13.346;2023-02-01T03:37:33;8.90;96.20
15844;DHT22;50807;52.436;13.346;2023-02-01T03:38:10;8.90;96.30
15844;DHT22;50807;52.436;13.346;2023-02-01T03:38:51;8.90;96.20
15844;DHT22;50807;52.436;13.346;2023-02-01T03:39:32;8.90;96.10
15844;DHT22;50807;52.436;13.346;2023-02-01T03:40:08;8.90;96.20
15844;DHT22;50807;52.436;13.346;2023-02-01T03:40:43;8.90;96.20
15844;DHT22;50807;52.436;13.346;2023-02-01T03:41:20;8.90;96.20
15844;DHT22;50807;52.436;13.346;2023-02-01T03:41:59;8.90;96.10
15844;DHT22;50807;52.436;13.346;2023-02-01T03:42:38;8.90;96.10
15844;DHT22;50807;52.436;13.346;2023-02-01T03:43:14;8.90;96.10
15844;DHT22;50807;52.436;13.346;2023-02-01T03:43:52;8.90;96.10
15844;DHT22;50807;52.436;13.346;2023-02-01T03:44:32;8.90;96.10
15844;DHT22;50807;52.436;13.346;2023-02-01T03:45:08;8.90;96.10
15844;DHT22;50807;52.436;13.346;2023-02-01T03:45:48;8.90;96.10
15844;DHT22;50807;52.436;13.346;2023-02-01T03:46:28;8.90;96.00
15844;DHT22;50807;52.436;13.346;2023-02-01T03:47:06;8.90;96.10
15844;DHT22;50807;52.436;13.346;2023-02-01T03:47:43;8.90;96.10
15844;DHT22;50807;52.436;13.346;2023-02-01T03:48:19;9.00;96.10
15844;DHT22;50807;52.436;13.346;2023-02-01T03:48:54;9.00;96.10
15844;DHT22;50807;52.436;13.346;2023-02-01T03:49:28;9.00;96.10
15844;DHT22;50807;52.436;13.346;2023-02-01T03:50:06;8.90;96.00
15844;DHT22;50807;52.436;13.346;2023-02-01T03:50:44;8.90;96.00
15844;DHT22;50807;52.436;13.346;2023-02-01T03:51:20;9.00;96.00
15844;DHT22;50807;52.436;13.346;2023-02-01T03:51:55;9.00;96.00
15844;DHT22;50807;52.436;13.346;2023-02-01T03:52:32;9.00;96.00